Terminal Aerodrome Forecast
Issued by NWS Upton, NY

Home | Current Version | Previous Version | Text Only | Print | Product List | Glossary On
Versions: 1 2 3 4 5 6 7 8 9 10 11 12 13 14 15 16 17 18 19 20 21 22 23 24 25 26 27 28 29 30 31 32 33 34
682
FTUS41 KOKX 272352
TAFLGA
TAF
KLGA 272352Z 2800/2824 18008KT P6SM SCT070 SCT120 SCT250
      TEMPO 2810/2812 6SM BR
     FM281400 23006KT P6SM SCT250
     FM281900 19014KT P6SM FEW050 SCT250=

USA.gov is the U.S. government's official web portal to all federal, state and local government web resources and services.